createdAt,value
2023-06-15T00:01:07.850Z,92.20
2023-06-15T00:03:39.330Z,92.30
2023-06-15T00:06:11.376Z,92.50
2023-06-15T00:08:42.846Z,92.80
2023-06-15T00:11:14.360Z,93.10
2023-06-15T00:13:45.915Z,93.30
2023-06-15T00:16:19.155Z,93.20
2023-06-15T00:18:52.307Z,93.40
2023-06-15T00:21:25.934Z,93.70
2023-06-15T00:23:57.477Z,93.60
2023-06-15T00:26:29.172Z,94.00
2023-06-15T00:29:00.608Z,94.10
2023-06-15T00:31:32.124Z,93.80
2023-06-15T00:34:03.711Z,93.50
2023-06-15T00:36:35.344Z,93.40
2023-06-15T00:39:07.117Z,93.30
2023-06-15T00:41:45.560Z,93.50
2023-06-15T00:44:17.518Z,93.50
2023-06-15T00:46:49.521Z,93.20
2023-06-15T00:49:23.636Z,93.10
2023-06-15T00:51:55.952Z,92.90
2023-06-15T00:54:28.970Z,92.70
2023-06-15T00:57:00.880Z,92.80
2023-06-15T00:59:32.473Z,92.70
2023-06-15T01:02:04.837Z,92.70
2023-06-15T01:04:36.334Z,92.70
2023-06-15T01:07:10.950Z,92.70
2023-06-15T01:09:45.301Z,92.90
2023-06-15T01:12:18.671Z,92.70
2023-06-15T01:14:50.279Z,92.80
2023-06-15T01:17:24.572Z,92.90
2023-06-15T01:20:01.475Z,93.10
2023-06-15T01:22:38.218Z,93.30
2023-06-15T01:25:15.153Z,93.00
2023-06-15T01:27:49.234Z,93.20
2023-06-15T01:30:20.984Z,93.00
2023-06-15T01:32:53.346Z,93.20
2023-06-15T01:35:24.999Z,93.40
2023-06-15T01:37:56.462Z,93.50
2023-06-15T01:40:28.639Z,93.30
2023-06-15T01:43:01.400Z,93.70
2023-06-15T01:45:33.402Z,93.70
2023-06-15T01:48:06.075Z,93.80
2023-06-15T01:50:38.600Z,93.60
2023-06-15T01:53:10.427Z,93.90
2023-06-15T01:55:42.157Z,94.40
2023-06-15T01:58:16.473Z,94.50
2023-06-15T02:00:48.909Z,94.70
2023-06-15T02:03:20.486Z,94.80
2023-06-15T02:05:52.127Z,94.70
2023-06-15T02:08:23.554Z,94.80
2023-06-15T02:10:55.087Z,94.60
2023-06-15T02:13:26.554Z,94.90
2023-06-15T02:15:58.250Z,95.20
2023-06-15T02:18:31.682Z,95.30
2023-06-15T02:21:03.259Z,95.60
2023-06-15T02:23:35.677Z,96.00
2023-06-15T02:26:09.211Z,96.40
2023-06-15T02:28:40.768Z,96.40
2023-06-15T02:31:12.505Z,96.60
2023-06-15T02:33:44.078Z,96.90
2023-06-15T02:36:17.374Z,97.20
2023-06-15T02:38:49.483Z,96.50
2023-06-15T02:41:21.204Z,96.70
2023-06-15T02:43:53.859Z,97.00
2023-06-15T02:46:25.995Z,97.20
2023-06-15T02:48:58.366Z,97.40
2023-06-15T02:51:29.907Z,97.20
2023-06-15T02:54:01.438Z,97.50
2023-06-15T02:56:34.609Z,97.50
2023-06-15T02:59:06.554Z,98.00
2023-06-15T03:01:42.345Z,98.80
2023-06-15T03:04:14.718Z,98.50
2023-06-15T03:06:47.616Z,98.70
2023-06-15T03:09:19.736Z,98.90
2023-06-15T03:11:52.107Z,98.80
2023-06-15T03:14:23.612Z,98.90
2023-06-15T03:16:55.642Z,99.20
2023-06-15T03:19:27.434Z,99.30
2023-06-15T03:21:59.005Z,99.40
2023-06-15T03:24:31.815Z,99.20
2023-06-15T03:27:07.959Z,99.50
2023-06-15T03:29:40.651Z,99.30
2023-06-15T03:32:12.187Z,99.40
2023-06-15T03:34:47.275Z,99.20
2023-06-15T03:37:18.496Z,99.30
2023-06-15T03:39:50.081Z,99.00
2023-06-15T03:42:21.622Z,99.20
2023-06-15T03:44:53.302Z,99.10
2023-06-15T03:47:25.658Z,99.10
2023-06-15T03:49:57.289Z,98.90
2023-06-15T03:52:29.299Z,99.00
2023-06-15T03:55:02.397Z,98.90
2023-06-15T03:57:34.355Z,98.40
2023-06-15T04:00:09.601Z,98.60
2023-06-15T04:02:42.236Z,98.40
2023-06-15T04:05:14.688Z,98.10
2023-06-15T04:07:47.414Z,98.10
2023-06-15T04:10:19.077Z,98.20
2023-06-15T04:12:51.604Z,98.30
2023-06-15T04:15:23.354Z,98.00
2023-06-15T04:17:54.602Z,97.30
2023-06-15T04:20:26.444Z,95.90
2023-06-15T04:22:58.649Z,95.70
2023-06-15T04:25:30.776Z,95.30
2023-06-15T04:28:03.507Z,95.80
2023-06-15T04:30:35.083Z,96.00
2023-06-15T04:33:07.010Z,95.70
2023-06-15T04:35:40.378Z,94.50
2023-06-15T04:38:13.671Z,93.70
2023-06-15T04:40:47.081Z,92.00
2023-06-15T04:43:19.950Z,90.40
2023-06-15T04:45:51.721Z,87.50
2023-06-15T04:48:24.922Z,84.90
2023-06-15T04:50:57.419Z,83.70
2023-06-15T04:53:29.030Z,81.20
2023-06-15T04:56:00.348Z,80.90
2023-06-15T04:58:32.257Z,81.70
2023-06-15T05:01:03.878Z,83.30
2023-06-15T05:03:35.463Z,88.50
2023-06-15T05:06:07.496Z,92.10
2023-06-15T05:08:39.385Z,93.40
2023-06-15T05:11:11.320Z,94.60
2023-06-15T05:13:43.900Z,94.80
2023-06-15T05:16:15.812Z,95.80
2023-06-15T05:18:47.811Z,95.40
2023-06-15T05:21:19.426Z,96.20
2023-06-15T05:23:52.349Z,97.20
2023-06-15T05:26:29.702Z,96.70
2023-06-15T05:28:56.983Z,93.90
2023-06-15T05:31:28.857Z,90.90
2023-06-15T05:34:00.524Z,87.50
2023-06-15T05:36:54.714Z,80.30
2023-06-15T05:39:07.292Z,78.70
2023-06-15T05:41:39.966Z,76.60
2023-06-15T05:44:11.913Z,73.90
2023-06-15T05:46:43.646Z,73.40
2023-06-15T05:49:16.314Z,74.20
2023-06-15T05:51:48.284Z,75.50
2023-06-15T05:54:19.943Z,76.40
2023-06-15T05:56:51.451Z,77.30
2023-06-15T05:59:32.866Z,78.20
2023-06-15T06:01:56.353Z,80.00
2023-06-15T06:04:27.889Z,78.70
2023-06-15T06:06:59.525Z,77.40
2023-06-15T06:09:31.321Z,74.70
2023-06-15T06:12:03.254Z,71.30
2023-06-15T06:14:34.808Z,68.10
2023-06-15T06:17:07.344Z,66.40
2023-06-15T06:19:39.054Z,65.10
2023-06-15T06:22:10.755Z,65.90
2023-06-15T06:24:42.474Z,64.80
2023-06-15T06:27:14.173Z,64.80
2023-06-15T06:29:45.841Z,64.80
2023-06-15T06:32:17.673Z,64.10
2023-06-15T06:34:49.250Z,64.10
2023-06-15T06:37:21.716Z,65.00
2023-06-15T06:39:53.255Z,65.40
2023-06-15T06:42:25.490Z,68.40
2023-06-15T06:44:57.130Z,70.50
2023-06-15T06:47:28.796Z,71.50
2023-06-15T06:50:00.980Z,71.60
2023-06-15T06:52:32.418Z,68.90
2023-06-15T06:55:05.917Z,68.00
2023-06-15T06:57:37.777Z,65.50
2023-06-15T07:00:11.788Z,65.90
2023-06-15T07:02:45.228Z,65.20
2023-06-15T07:05:17.231Z,66.00
2023-06-15T07:07:49.061Z,64.60
2023-06-15T07:10:20.669Z,65.40
2023-06-15T07:12:53.805Z,65.50
2023-06-15T07:15:27.084Z,63.70
2023-06-15T07:17:59.167Z,63.80
2023-06-15T07:20:30.969Z,64.50
2023-06-15T07:23:02.496Z,64.90
2023-06-15T07:25:34.325Z,65.90
2023-06-15T07:28:06.374Z,64.80
2023-06-15T07:30:37.842Z,64.90
2023-06-15T07:33:09.462Z,65.00
2023-06-15T07:35:41.928Z,66.40
2023-06-15T07:38:15.074Z,65.80
2023-06-15T07:40:46.458Z,66.80
2023-06-15T07:43:18.027Z,67.50
2023-06-15T07:45:49.657Z,68.50
2023-06-15T07:51:32.003Z,70.20
2023-06-15T07:53:50.473Z,70.90
2023-06-15T07:56:22.089Z,70.60
2023-06-15T07:58:53.669Z,73.40
2023-06-15T08:01:25.326Z,73.50
2023-06-15T08:03:56.893Z,74.10
2023-06-15T08:06:28.442Z,75.50
2023-06-15T08:08:59.897Z,74.00
2023-06-15T08:11:31.831Z,74.10
2023-06-15T08:14:03.494Z,74.20
2023-06-15T08:16:35.746Z,74.60
2023-06-15T08:19:22.514Z,74.80
2023-06-15T08:21:54.042Z,76.10
2023-06-15T08:24:29.227Z,76.00
2023-06-15T08:27:00.482Z,75.50
2023-06-15T08:29:31.912Z,75.10
2023-06-15T08:32:03.595Z,71.50
2023-06-15T08:34:35.104Z,72.80
2023-06-15T08:37:07.451Z,73.30
2023-06-15T08:39:40.299Z,71.00
2023-06-15T08:42:11.830Z,71.70
2023-06-15T08:44:44.070Z,73.40
2023-06-15T08:47:16.201Z,71.60
2023-06-15T08:49:48.502Z,72.50
2023-06-15T08:52:22.270Z,70.10
2023-06-15T08:54:55.568Z,70.40
2023-06-15T08:57:27.178Z,70.30
2023-06-15T08:59:58.700Z,69.80
2023-06-15T09:02:33.482Z,69.80
2023-06-15T09:05:05.241Z,70.50
2023-06-15T09:07:37.297Z,69.40
2023-06-15T09:10:17.487Z,68.60
2023-06-15T09:12:50.162Z,69.60
2023-06-15T09:15:23.065Z,68.20
2023-06-15T09:17:55.423Z,69.00
2023-06-15T09:20:28.822Z,68.70
2023-06-15T09:23:03.506Z,68.90
2023-06-15T09:25:37.044Z,68.60
2023-06-15T09:28:09.566Z,66.70
2023-06-15T09:30:42.464Z,68.70
2023-06-15T09:33:16.234Z,67.70
2023-06-15T09:35:59.676Z,68.30
2023-06-15T09:38:33.897Z,68.70
2023-06-15T09:41:07.009Z,69.30
2023-06-15T09:43:40.749Z,69.60
2023-06-15T09:46:13.909Z,69.40
2023-06-15T09:48:48.316Z,71.20
2023-06-15T09:51:21.571Z,70.20
2023-06-15T09:53:55.465Z,70.10
2023-06-15T09:56:31.332Z,71.20
2023-06-15T09:59:02.931Z,68.20
2023-06-15T10:01:37.303Z,68.90
2023-06-15T10:04:11.287Z,70.40
2023-06-15T10:06:45.588Z,69.60
2023-06-15T10:09:20.152Z,69.70
2023-06-15T10:11:54.539Z,69.00
2023-06-15T10:14:29.477Z,68.80
2023-06-15T10:17:03.418Z,67.50
2023-06-15T10:19:39.119Z,68.50
2023-06-15T10:22:13.224Z,67.60
2023-06-15T10:24:46.542Z,65.90
2023-06-15T10:27:19.030Z,66.90
2023-06-15T10:29:55.898Z,66.10
2023-06-15T10:32:34.111Z,66.70
2023-06-15T10:35:09.507Z,65.60
2023-06-15T10:37:44.932Z,64.70
2023-06-15T10:40:21.747Z,65.60
2023-06-15T10:42:53.968Z,64.00
2023-06-15T10:45:33.115Z,64.90
2023-06-15T10:48:06.773Z,64.00
2023-06-15T10:50:44.060Z,66.20
2023-06-15T10:53:26.937Z,66.50
2023-06-15T10:55:59.510Z,66.50
2023-06-15T10:58:31.981Z,65.70
2023-06-15T11:01:12.789Z,66.10
2023-06-15T11:03:45.763Z,66.30
2023-06-15T11:06:19.636Z,66.90
2023-06-15T11:08:53.721Z,68.40
2023-06-15T11:11:30.130Z,68.10
2023-06-15T11:14:04.280Z,68.50
2023-06-15T11:16:37.611Z,66.80
2023-06-15T11:19:28.414Z,65.10
2023-06-15T11:22:06.624Z,69.60
2023-06-15T11:24:40.344Z,67.90
2023-06-15T11:27:14.784Z,65.70
2023-06-15T11:29:47.229Z,64.50
2023-06-15T11:32:18.670Z,65.90
2023-06-15T11:34:50.246Z,60.30
2023-06-15T11:37:23.440Z,58.60
2023-06-15T11:39:55.142Z,57.10
2023-06-15T11:42:26.731Z,55.80
2023-06-15T11:44:58.871Z,57.40
2023-06-15T11:47:30.326Z,59.90
2023-06-15T11:50:02.457Z,60.70
2023-06-15T11:52:34.008Z,61.90
2023-06-15T11:55:14.667Z,63.00
2023-06-15T11:58:09.441Z,62.10
2023-06-15T12:00:41.849Z,63.10
2023-06-15T12:03:15.069Z,64.90
2023-06-15T12:05:47.078Z,63.30
2023-06-15T12:08:18.690Z,64.30
2023-06-15T12:10:52.230Z,63.20
2023-06-15T12:13:24.270Z,65.20
2023-06-15T12:15:55.966Z,64.40
2023-06-15T12:18:27.664Z,64.60
2023-06-15T12:21:01.415Z,63.50
2023-06-15T12:23:34.859Z,64.20
2023-06-15T12:26:08.340Z,65.10
2023-06-15T12:28:39.964Z,65.40
2023-06-15T12:31:12.911Z,64.00
2023-06-15T12:33:45.529Z,64.20
2023-06-15T12:36:18.351Z,64.00
2023-06-15T12:38:51.392Z,64.20
2023-06-15T12:41:23.020Z,62.70
2023-06-15T12:43:55.520Z,63.50
2023-06-15T12:46:27.161Z,61.70
2023-06-15T12:48:59.058Z,61.10
2023-06-15T12:51:30.500Z,62.00
2023-06-15T12:54:02.847Z,62.00
2023-06-15T12:56:36.462Z,61.30
2023-06-15T12:59:08.114Z,61.70
2023-06-15T13:01:39.680Z,62.60
2023-06-15T13:04:11.939Z,62.30
2023-06-15T13:06:45.171Z,63.90
2023-06-15T13:09:17.494Z,62.80
2023-06-15T13:11:49.403Z,64.20
2023-06-15T13:14:21.489Z,63.00
2023-06-15T13:16:53.137Z,61.60
2023-06-15T13:19:24.687Z,62.10
2023-06-15T13:21:56.179Z,61.50
2023-06-15T13:24:27.775Z,64.00
2023-06-15T13:27:00.832Z,63.00
2023-06-15T13:29:33.532Z,61.80
2023-06-15T13:32:06.833Z,62.10
2023-06-15T13:34:38.452Z,61.80
2023-06-15T13:37:10.160Z,61.70
2023-06-15T13:39:42.364Z,63.10
2023-06-15T13:42:14.138Z,62.10
2023-06-15T13:44:45.747Z,62.70
2023-06-15T13:47:18.814Z,60.20
2023-06-15T13:49:51.013Z,61.80
2023-06-15T13:52:23.084Z,61.40
2023-06-15T13:54:54.631Z,60.90
2023-06-15T13:57:26.226Z,60.90
2023-06-15T13:59:57.823Z,60.90
2023-06-15T14:02:29.347Z,61.40
2023-06-15T14:05:01.176Z,61.60
2023-06-15T14:07:34.523Z,60.00
2023-06-15T14:10:07.509Z,60.60
2023-06-15T14:12:39.518Z,60.60
2023-06-15T14:15:12.382Z,61.10
2023-06-15T14:17:44.026Z,60.60
2023-06-15T14:20:16.076Z,60.00
2023-06-15T14:22:48.066Z,59.60
2023-06-15T14:25:19.897Z,60.00
2023-06-15T14:27:51.384Z,58.50
2023-06-15T14:30:23.224Z,59.60
2023-06-15T14:32:54.972Z,58.50
2023-06-15T14:35:27.359Z,60.10
2023-06-15T14:37:58.945Z,59.00
2023-06-15T14:40:31.275Z,58.30
2023-06-15T14:43:02.819Z,58.40
2023-06-15T14:45:34.500Z,58.50
2023-06-15T14:48:06.797Z,58.40
2023-06-15T14:50:38.579Z,58.40
2023-06-15T14:53:10.214Z,58.40
2023-06-15T14:55:42.834Z,57.10
2023-06-15T14:58:14.396Z,57.00
2023-06-15T15:00:45.872Z,56.00
2023-06-15T15:03:17.462Z,56.80
2023-06-15T15:05:49.585Z,57.00
2023-06-15T15:08:23.031Z,56.50
2023-06-15T15:10:55.765Z,55.90
2023-06-15T15:13:27.314Z,56.40
2023-06-15T15:15:58.833Z,56.30
2023-06-15T15:18:30.850Z,57.10
2023-06-15T15:21:03.471Z,58.50
2023-06-15T15:23:36.146Z,56.70
2023-06-15T15:26:07.727Z,57.10
2023-06-15T15:28:40.339Z,57.00
2023-06-15T15:31:11.762Z,58.10
2023-06-15T15:33:43.286Z,57.70
2023-06-15T15:36:15.157Z,58.00
2023-06-15T15:38:46.745Z,57.40
2023-06-15T15:41:18.409Z,57.20
2023-06-15T15:43:50.137Z,57.20
2023-06-15T15:46:22.118Z,58.70
2023-06-15T15:48:53.656Z,58.60
2023-06-15T15:51:25.651Z,58.20
2023-06-15T15:53:57.120Z,57.50
2023-06-15T15:56:29.286Z,58.80
2023-06-15T15:59:00.935Z,56.60
2023-06-15T16:01:32.654Z,57.40
2023-06-15T16:04:04.696Z,57.50
2023-06-15T16:06:36.266Z,58.50
2023-06-15T16:09:07.767Z,58.00
2023-06-15T16:11:39.194Z,57.40
2023-06-15T16:14:10.745Z,55.80
2023-06-15T16:16:42.206Z,55.80
2023-06-15T16:19:13.676Z,55.00
2023-06-15T16:21:45.331Z,53.60
2023-06-15T16:24:17.520Z,52.60
2023-06-15T16:26:49.267Z,53.30
2023-06-15T16:29:20.769Z,53.90
2023-06-15T16:31:52.594Z,53.50
2023-06-15T16:34:24.051Z,53.90
2023-06-15T16:36:55.665Z,53.80
2023-06-15T16:39:49.834Z,54.30
2023-06-15T16:42:24.339Z,53.80
2023-06-15T16:44:56.097Z,55.20
2023-06-15T16:47:28.280Z,56.70
2023-06-15T16:50:00.483Z,57.60
2023-06-15T16:52:32.471Z,58.40
2023-06-15T16:55:04.573Z,59.40
2023-06-15T16:57:36.316Z,60.80
2023-06-15T17:00:10.918Z,62.90
2023-06-15T17:02:42.526Z,64.70
2023-06-15T17:05:14.299Z,66.00
2023-06-15T17:07:45.882Z,66.20
2023-06-15T17:10:17.588Z,64.60
2023-06-15T17:12:49.827Z,63.60
2023-06-15T17:15:21.468Z,60.00
2023-06-15T17:17:53.086Z,61.40
2023-06-15T17:20:24.679Z,61.40
2023-06-15T17:22:56.936Z,62.00
2023-06-15T17:25:28.588Z,61.80
2023-06-15T17:28:00.390Z,61.90
2023-06-15T17:30:32.072Z,63.30
2023-06-15T17:33:03.723Z,62.60
2023-06-15T17:35:35.243Z,62.70
2023-06-15T17:38:08.427Z,62.70
2023-06-15T17:40:40.211Z,62.90
2023-06-15T17:43:11.770Z,64.80
2023-06-15T17:45:43.310Z,63.10
2023-06-15T17:48:15.662Z,63.20
2023-06-15T17:50:47.514Z,63.50
2023-06-15T17:53:19.877Z,63.50
2023-06-15T17:55:52.029Z,64.10
2023-06-15T17:58:24.805Z,64.30
2023-06-15T18:00:57.363Z,64.20
2023-06-15T18:03:29.548Z,64.70
2023-06-15T18:06:01.183Z,64.70
2023-06-15T18:08:32.725Z,64.80
2023-06-15T18:11:04.398Z,64.30
2023-06-15T18:13:36.123Z,64.30
2023-06-15T18:16:08.211Z,64.20
2023-06-15T18:18:39.735Z,63.80
2023-06-15T18:21:11.174Z,63.80
2023-06-15T18:23:42.762Z,63.60
2023-06-15T18:26:14.509Z,64.80
2023-06-15T18:28:46.042Z,65.60
2023-06-15T18:31:17.948Z,67.00
2023-06-15T18:33:49.443Z,68.50
2023-06-15T18:36:21.094Z,67.50
2023-06-15T18:38:52.688Z,69.00
2023-06-15T18:41:24.170Z,70.20
2023-06-15T18:43:55.762Z,71.10
2023-06-15T18:46:27.416Z,71.50
2023-06-15T18:48:58.933Z,71.70
2023-06-15T18:51:30.442Z,72.00
2023-06-15T18:54:02.145Z,72.60
2023-06-15T18:56:33.782Z,73.10
2023-06-15T18:59:05.247Z,73.00
2023-06-15T19:01:38.898Z,73.10
2023-06-15T19:04:10.495Z,73.60
2023-06-15T19:06:43.692Z,73.20
2023-06-15T19:09:15.165Z,73.30
2023-06-15T19:11:46.789Z,72.70
2023-06-15T19:14:18.434Z,72.30
2023-06-15T19:16:50.730Z,73.90
2023-06-15T19:19:22.315Z,75.00
2023-06-15T19:21:53.918Z,74.80
2023-06-15T19:24:26.120Z,73.60
2023-06-15T19:26:57.795Z,73.10
2023-06-15T19:29:57.185Z,73.90
2023-06-15T19:32:30.023Z,74.60
2023-06-15T19:35:01.656Z,75.40
2023-06-15T19:37:33.257Z,77.00
2023-06-15T19:40:05.026Z,77.70
2023-06-15T19:42:36.580Z,77.80
2023-06-15T19:45:09.681Z,79.00
2023-06-15T19:47:41.517Z,79.50
2023-06-15T19:50:13.845Z,78.70
2023-06-15T19:52:45.477Z,79.10
2023-06-15T19:55:16.987Z,79.30
2023-06-15T19:57:48.550Z,78.60
2023-06-15T20:00:22.587Z,79.50
2023-06-15T20:02:55.034Z,79.50
2023-06-15T20:05:30.386Z,79.80
2023-06-15T20:08:01.990Z,80.00
2023-06-15T20:10:33.731Z,80.00
2023-06-15T20:13:05.959Z,80.70
2023-06-15T20:15:37.457Z,80.60
2023-06-15T20:18:08.979Z,80.50
2023-06-15T20:20:40.577Z,80.10
2023-06-15T20:23:12.432Z,80.20
2023-06-15T20:25:44.089Z,80.20
2023-06-15T20:28:15.646Z,79.90
2023-06-15T20:30:47.658Z,79.50
2023-06-15T20:33:19.584Z,80.00
2023-06-15T20:35:51.164Z,79.90
2023-06-15T20:38:22.798Z,79.70
2023-06-15T20:40:54.426Z,79.40
2023-06-15T20:43:26.178Z,79.20
2023-06-15T20:45:58.903Z,80.10
2023-06-15T20:48:34.525Z,79.60
2023-06-15T20:51:06.779Z,79.70
2023-06-15T20:53:39.631Z,81.00
2023-06-15T20:56:11.304Z,80.80
2023-06-15T20:58:44.031Z,80.80
2023-06-15T21:01:15.933Z,80.80
2023-06-15T21:03:48.073Z,80.20
2023-06-15T21:06:19.649Z,80.40
2023-06-15T21:08:52.937Z,80.50
2023-06-15T21:11:24.850Z,81.20
2023-06-15T21:13:56.429Z,81.20
2023-06-15T21:16:28.057Z,81.70
2023-06-15T21:18:59.520Z,81.50
2023-06-15T21:21:31.040Z,81.80
2023-06-15T21:24:02.687Z,82.50
2023-06-15T21:26:34.608Z,84.10
2023-06-15T21:29:06.500Z,84.90
2023-06-15T21:31:38.420Z,85.80
2023-06-15T21:34:09.863Z,86.40
2023-06-15T21:36:41.459Z,86.00
2023-06-15T21:39:12.938Z,86.50
2023-06-15T21:41:44.706Z,86.90
2023-06-15T21:44:16.214Z,86.70
2023-06-15T21:46:47.756Z,87.60
2023-06-15T21:49:19.228Z,88.00
2023-06-15T21:51:50.796Z,89.10
2023-06-15T21:54:22.362Z,89.70
2023-06-15T21:56:54.076Z,90.00
2023-06-15T21:59:25.638Z,89.90
2023-06-15T22:01:57.126Z,89.00
2023-06-15T22:04:28.708Z,89.10
2023-06-15T22:07:00.426Z,88.90
2023-06-15T22:09:33.714Z,89.10
2023-06-15T22:12:07.949Z,89.60
2023-06-15T22:14:41.710Z,89.60
2023-06-15T22:17:13.269Z,89.70
2023-06-15T22:19:44.942Z,89.50
2023-06-15T22:22:16.522Z,89.20
2023-06-15T22:24:48.040Z,89.80
2023-06-15T22:27:20.861Z,90.00
2023-06-15T22:29:52.493Z,90.50
2023-06-15T22:32:24.182Z,91.00
2023-06-15T22:34:55.709Z,91.20
2023-06-15T22:37:27.312Z,91.10
2023-06-15T22:39:58.863Z,91.30
2023-06-15T22:42:30.492Z,91.10
2023-06-15T22:45:01.934Z,91.30
2023-06-15T22:47:33.564Z,91.50
2023-06-15T22:50:07.273Z,91.70
2023-06-15T22:52:40.433Z,91.60
2023-06-15T22:55:12.655Z,91.50
2023-06-15T22:57:55.556Z,91.80
2023-06-15T23:00:27.061Z,91.90
2023-06-15T23:02:59.540Z,92.00
2023-06-15T23:05:33.305Z,92.20
2023-06-15T23:08:05.324Z,92.60
2023-06-15T23:10:37.099Z,93.30
2023-06-15T23:13:09.273Z,93.50
2023-06-15T23:15:41.698Z,93.50
2023-06-15T23:18:13.992Z,93.70
2023-06-15T23:20:45.580Z,93.80
2023-06-15T23:23:18.763Z,94.10
2023-06-15T23:25:50.917Z,93.90
2023-06-15T23:28:23.670Z,93.80
2023-06-15T23:30:55.758Z,93.90
2023-06-15T23:33:27.245Z,94.10
2023-06-15T23:35:58.770Z,94.60
2023-06-15T23:38:30.324Z,94.50
2023-06-15T23:41:01.840Z,94.70
2023-06-15T23:43:33.460Z,94.60
2023-06-15T23:46:05.192Z,94.70
2023-06-15T23:48:36.605Z,95.20
2023-06-15T23:51:08.539Z,95.90
2023-06-15T23:53:40.080Z,96.20
2023-06-15T23:56:11.594Z,96.40
2023-06-15T23:58:43.264Z,96.40
